Time,TemperatureF,DewpointF,PressureIn,WindDirection,WindDirectionDegrees,WindSpeedMPH,WindSpeedGustMPH,Humidity,HourlyPrecipIn,Conditions,Clouds,dailyrainin,SoftwareType,DateUTC
2013-07-05 00:00:00,54.8,51.3,29.66,West,270,0.0,2.0,88,0.00,,---,0.00,VWS V14.01,2013-07-05 06:00:00,
2013-07-05 00:30:00,54.9,51.4,29.65,West,270,0.0,2.0,88,0.00,,---,0.00,VWS V14.01,2013-07-05 06:30:00,
2013-07-05 01:00:00,54.9,51.1,29.65,WNW,292,0.0,1.0,87,0.00,,---,0.00,VWS V14.01,2013-07-05 07:00:00,
2013-07-05 01:30:00,54.9,50.8,29.64,WNW,292,0.0,1.0,86,0.00,,---,0.00,VWS V14.01,2013-07-05 07:30:00,
2013-07-05 02:00:00,54.6,51.1,29.63,WNW,292,0.0,1.0,88,0.00,,---,0.00,VWS V14.01,2013-07-05 08:00:00,
2013-07-05 02:30:00,54.3,50.5,29.63,WNW,292,0.0,1.0,87,0.00,,---,0.00,VWS V14.01,2013-07-05 08:30:00,
2013-07-05 03:00:00,53.8,50.0,29.62,WNW,292,0.0,3.0,87,0.00,,---,0.00,VWS V14.01,2013-07-05 09:00:00,
2013-07-05 03:30:00,54.0,49.0,29.62,East,90,0.0,1.0,83,0.00,,---,0.00,VWS V14.01,2013-07-05 09:30:00,
2013-07-05 04:00:00,54.0,48.0,29.61,NNW,338,0.0,2.0,80,0.00,,---,0.00,VWS V14.01,2013-07-05 10:00:00,
2013-07-05 04:30:00,54.7,48.0,29.61,West,270,0.0,2.0,78,0.00,,---,0.00,VWS V14.01,2013-07-05 10:30:00,
2013-07-05 05:00:00,54.8,47.7,29.63,ESE,112,0.0,2.0,77,0.00,,---,0.00,VWS V14.01,2013-07-05 11:00:00,
2013-07-05 05:30:00,54.5,47.1,29.62,ENE,68,0.0,2.0,76,0.00,,---,0.00,VWS V14.01,2013-07-05 11:30:00,
2013-07-05 06:00:00,52.4,45.8,29.63,WNW,292,1.0,2.0,78,0.00,,---,0.00,VWS V14.01,2013-07-05 12:00:00,
2013-07-05 06:43:00,53.8,46.1,29.64,WSW,252,0.0,1.0,75,0.00,,---,0.00,VWS V14.01,2013-07-05 12:43:00,
2013-07-05 06:48:00,54.4,45.9,29.64,WSW,248,1.0,3.0,73,0.00,,---,0.00,VWS V14.01,2013-07-05 12:48:00,
2013-07-05 06:53:00,55.0,46.2,29.64,West,277,2.0,6.0,72,0.00,,---,0.00,VWS V14.01,2013-07-05 12:53:00,
2013-07-05 06:58:00,55.4,46.2,29.64,WNW,291,3.0,6.0,71,0.00,,---,0.00,VWS V14.01,2013-07-05 12:58:00,
2013-07-05 07:00:00,55.6,46.4,29.64,WNW,285,1.0,6.0,71,0.00,,---,0.00,VWS V14.01,2013-07-05 13:00:00,
2013-07-05 07:03:00,55.7,46.8,29.64,WNW,290,0.0,2.0,72,0.00,,---,0.00,VWS V14.01,2013-07-05 13:03:00,
2013-07-05 07:08:00,56.0,46.4,29.64,East,95,1.0,4.0,70,0.00,,---,0.00,VWS V14.01,2013-07-05 13:08:00,
2013-07-05 07:13:00,56.1,46.5,29.65,East,96,1.0,4.0,70,0.00,,---,0.00,VWS V14.01,2013-07-05 13:13:00,
2013-07-05 07:18:00,56.2,46.6,29.64,East,96,1.0,4.0,70,0.00,,---,0.00,VWS V14.01,2013-07-05 13:18:00,
2013-07-05 07:23:00,56.3,46.7,29.65,ENE,76,0.0,4.0,70,0.00,,---,0.00,VWS V14.01,2013-07-05 13:23:00,
2013-07-05 07:28:00,56.6,46.2,29.65,ENE,76,0.0,4.0,68,0.00,,---,0.00,VWS V14.01,2013-07-05 13:28:00,
2013-07-05 07:30:00,56.7,46.3,29.65,ENE,76,1.0,4.0,68,0.00,,---,0.00,VWS V14.01,2013-07-05 13:30:00,
2013-07-05 07:33:00,56.9,46.1,29.65,NNW,331,1.0,3.0,67,0.00,,---,0.00,VWS V14.01,2013-07-05 13:33:00,
2013-07-05 07:38:00,57.1,45.9,29.64,West,266,0.0,3.0,66,0.00,,---,0.00,VWS V14.01,2013-07-05 13:38:00,
2013-07-05 07:44:00,57.4,46.5,29.64,NW,305,2.0,3.0,67,0.00,,---,0.00,VWS V14.01,2013-07-05 13:44:00,
2013-07-05 07:49:00,57.6,47.5,29.64,West,274,1.0,3.0,69,0.00,,---,0.00,VWS V14.01,2013-07-05 13:49:00,
2013-07-05 07:53:00,57.6,47.1,29.64,West,270,0.0,5.0,68,0.00,,---,0.00,VWS V14.01,2013-07-05 13:53:00,
2013-07-05 07:59:00,57.7,46.4,29.64,NW,312,2.0,5.0,66,0.00,,---,0.00,VWS V14.01,2013-07-05 13:59:00,
2013-07-05 08:00:00,57.9,47.0,29.64,WNW,294,2.0,5.0,67,0.00,,---,0.00,VWS V14.01,2013-07-05 14:00:00,
2013-07-05 08:04:00,58.2,47.3,29.64,WNW,297,2.0,6.0,67,0.00,,---,0.00,VWS V14.01,2013-07-05 14:04:00,
2013-07-05 08:09:00,58.6,46.1,29.64,West,279,3.0,6.0,63,0.00,,---,0.00,VWS V14.01,2013-07-05 14:09:00,
2013-07-05 08:14:00,59.1,46.5,29.64,NW,315,4.0,6.0,63,0.00,,---,0.00,VWS V14.01,2013-07-05 14:14:00,
2013-07-05 08:19:00,59.4,46.8,29.64,West,263,2.0,6.0,63,0.00,,---,0.00,VWS V14.01,2013-07-05 14:19:00,
2013-07-05 08:24:00,59.9,46.0,29.64,WNW,287,3.0,8.0,60,0.00,,---,0.00,VWS V14.01,2013-07-05 14:24:00,
2013-07-05 08:29:00,60.3,46.8,29.64,West,278,3.0,8.0,61,0.00,,---,0.00,VWS V14.01,2013-07-05 14:29:00,
2013-07-05 08:30:00,60.4,46.5,29.64,West,280,4.0,8.0,60,0.00,,---,0.00,VWS V14.01,2013-07-05 14:30:00,
2013-07-05 08:34:00,60.5,46.1,29.64,NW,316,3.0,5.0,59,0.00,,---,0.00,VWS V14.01,2013-07-05 14:34:00,
2013-07-05 08:39:00,60.6,45.8,29.64,West,267,5.0,8.0,58,0.00,,---,0.00,VWS V14.01,2013-07-05 14:39:00,
2013-07-05 08:44:00,60.7,45.8,29.64,West,274,2.0,8.0,58,0.00,,---,0.00,VWS V14.01,2013-07-05 14:44:00,
2013-07-05 08:49:00,61.3,46.9,29.64,WSW,252,4.0,8.0,59,0.00,,---,0.00,VWS V14.01,2013-07-05 14:49:00,
2013-07-05 08:54:00,62.7,46.8,29.63,West,280,3.0,8.0,56,0.00,,---,0.00,VWS V14.01,2013-07-05 14:54:00,
2013-07-05 08:59:00,63.7,47.2,29.63,NW,304,4.0,8.0,55,0.00,,---,0.00,VWS V14.01,2013-07-05 14:59:00,
2013-07-05 09:00:00,64.1,47.1,29.63,WNW,295,3.0,8.0,54,0.00,,---,0.00,VWS V14.01,2013-07-05 15:00:00,
2013-07-05 09:04:00,64.9,46.4,29.62,NW,307,4.0,6.0,51,0.00,,---,0.00,VWS V14.01,2013-07-05 15:04:00,
2013-07-05 09:09:00,65.6,46.5,29.62,WNW,302,4.0,8.0,50,0.00,,---,0.00,VWS V14.01,2013-07-05 15:09:00,
2013-07-05 09:14:00,66.5,46.8,29.62,WNW,297,5.0,8.0,49,0.00,,---,0.00,VWS V14.01,2013-07-05 15:14:00,
2013-07-05 09:19:00,67.8,46.9,29.61,West,280,2.0,8.0,47,0.00,,---,0.00,VWS V14.01,2013-07-05 15:19:00,
2013-07-05 09:24:00,68.7,46.5,29.61,WNW,289,3.0,8.0,45,0.00,,---,0.00,VWS V14.01,2013-07-05 15:24:00,
2013-07-05 09:29:00,68.6,45.8,29.61,West,277,4.0,8.0,44,0.00,,---,0.00,VWS V14.01,2013-07-05 15:29:00,
2013-07-05 09:30:00,68.4,45.7,29.61,WNW,301,6.0,8.0,44,0.00,,---,0.00,VWS V14.01,2013-07-05 15:30:00,
2013-07-05 09:34:00,67.7,45.0,29.61,West,271,6.0,9.0,44,0.00,,---,0.00,VWS V14.01,2013-07-05 15:34:00,
2013-07-05 09:39:00,67.3,44.7,29.60,WNW,282,4.0,9.0,44,0.00,,---,0.00,VWS V14.01,2013-07-05 15:39:00,
2013-07-05 09:44:00,67.9,45.8,29.60,WSW,252,2.0,9.0,45,0.00,,---,0.00,VWS V14.01,2013-07-05 15:44:00,
2013-07-05 09:49:00,68.2,45.5,29.60,WNW,287,4.0,9.0,44,0.00,,---,0.00,VWS V14.01,2013-07-05 15:49:00,
2013-07-05 09:50:00,68.3,45.6,29.60,WNW,286,5.0,9.0,44,0.00,,---,0.00,VWS V14.01,2013-07-05 15:50:00,
2013-07-05 09:55:00,68.4,45.7,29.60,West,281,3.0,9.0,44,0.00,,---,0.00,VWS V14.01,2013-07-05 15:55:00,
2013-07-05 10:00:00,68.5,45.8,29.59,West,259,2.0,10.0,44,0.00,,---,0.00,VWS V14.01,2013-07-05 16:00:00,
2013-07-05 10:05:00,68.1,44.8,29.59,WSW,253,6.0,7.0,43,0.00,,---,0.00,VWS V14.01,2013-07-05 16:05:00,
2013-07-05 10:10:00,67.9,45.2,29.59,WNW,290,5.0,8.0,44,0.00,,---,0.00,VWS V14.01,2013-07-05 16:10:00,
2013-07-05 10:15:00,68.1,45.4,29.58,NW,316,4.0,8.0,44,0.00,,---,0.00,VWS V14.01,2013-07-05 16:15:00,
2013-07-05 10:20:00,69.0,45.6,29.58,West,271,3.0,8.0,43,0.00,,---,0.00,VWS V14.01,2013-07-05 16:20:00,
2013-07-05 10:25:00,70.3,44.9,29.58,West,280,4.0,8.0,40,0.00,,---,0.00,VWS V14.01,2013-07-05 16:25:00,
2013-07-05 10:30:00,71.4,43.8,29.58,WNW,284,3.0,8.0,37,0.00,,---,0.00,VWS V14.01,2013-07-05 16:30:00,
2013-07-05 11:00:00,75.4,43.5,29.56,West,270,2.0,9.0,32,0.00,,---,0.00,VWS V14.01,2013-07-05 17:00:00,
2013-07-05 11:30:00,76.8,43.9,29.56,West,270,2.0,7.0,31,0.00,,---,0.00,VWS V14.01,2013-07-05 17:30:00,
2013-07-05 12:00:00,79.5,41.7,29.54,West,270,2.0,6.0,26,0.00,,---,0.00,VWS V14.01,2013-07-05 18:00:00,
2013-07-05 12:30:00,80.3,42.3,29.52,West,270,3.0,10.0,26,0.00,,---,0.00,VWS V14.01,2013-07-05 18:30:00,
2013-07-05 13:00:00,78.0,44.1,29.51,West,270,2.0,8.0,30,0.00,,---,0.00,VWS V14.01,2013-07-05 19:00:00,
2013-07-05 13:30:00,71.8,47.5,29.53,East,90,3.0,13.0,42,0.00,,---,0.00,VWS V14.01,2013-07-05 19:30:00,
2013-07-05 14:12:00,71.6,44.0,29.58,West,260,1.0,4.0,37,0.00,,---,0.00,VWS V14.01,2013-07-05 20:12:00,
2013-07-05 14:17:00,68.8,47.8,29.56,ENE,58,3.0,6.0,47,0.01,,---,0.01,VWS V14.01,2013-07-05 20:17:00,
2013-07-05 14:22:00,68.4,47.4,29.57,SE,132,2.0,6.0,47,0.01,,---,0.01,VWS V14.01,2013-07-05 20:22:00,
2013-07-05 14:27:00,67.5,47.7,29.57,ENE,76,10.0,12.0,49,0.02,,---,0.02,VWS V14.01,2013-07-05 20:27:00,
2013-07-05 14:28:00,67.4,47.6,29.57,East,92,7.0,12.0,49,0.02,,---,0.02,VWS V14.01,2013-07-05 20:28:00,
2013-07-05 14:30:00,66.1,50.9,29.56,East,96,3.0,12.0,58,0.05,,---,0.05,VWS V14.01,2013-07-05 20:30:00,
2013-07-05 14:33:00,64.8,52.8,29.56,ESE,110,1.0,4.0,65,0.08,,---,0.08,VWS V14.01,2013-07-05 20:33:00,
2013-07-05 14:38:00,62.0,53.6,29.57,SW,226,1.0,4.0,74,0.13,,---,0.13,VWS V14.01,2013-07-05 20:38:00,
2013-07-05 14:43:00,59.8,54.0,29.58,SW,217,0.0,4.0,81,0.13,,---,0.13,VWS V14.01,2013-07-05 20:43:00,
2013-07-05 14:48:00,58.8,54.6,29.57,East,88,1.0,4.0,86,0.14,,---,0.14,VWS V14.01,2013-07-05 20:48:00,
2013-07-05 14:53:00,58.2,54.4,29.57,East,81,0.0,4.0,87,0.15,,---,0.15,VWS V14.01,2013-07-05 20:53:00,
2013-07-05 14:58:00,57.9,54.7,29.57,South,172,2.0,4.0,89,0.15,,---,0.15,VWS V14.01,2013-07-05 20:58:00,
2013-07-05 15:00:00,57.7,54.5,29.57,South,170,0.0,4.0,89,0.15,,---,0.15,VWS V14.01,2013-07-05 21:00:00,
2013-07-05 15:03:00,57.7,54.5,29.57,SSE,148,1.0,2.0,89,0.10,,---,0.15,VWS V14.01,2013-07-05 21:03:00,
2013-07-05 15:08:00,57.6,54.7,29.57,South,190,0.0,2.0,90,0.10,,---,0.15,VWS V14.01,2013-07-05 21:08:00,
2013-07-05 15:13:00,57.8,54.9,29.57,South,188,0.0,2.0,90,0.10,,---,0.15,VWS V14.01,2013-07-05 21:13:00,
2013-07-05 15:18:00,57.9,55.0,29.58,South,191,0.0,2.0,90,0.10,,---,0.15,VWS V14.01,2013-07-05 21:18:00,
2013-07-05 15:27:00,58.0,55.1,29.58,SSE,160,0.0,0.0,90,0.00,,---,0.15,VWS V14.01,2013-07-05 21:27:00,
2013-07-05 15:30:00,58.2,55.6,29.57,SSE,159,0.0,0.0,91,0.10,,---,0.15,VWS V14.01,2013-07-05 21:30:00,
2013-07-05 15:32:00,58.2,55.6,29.57,SSE,160,0.0,0.0,91,0.10,,---,0.15,VWS V14.01,2013-07-05 21:32:00,
2013-07-05 15:37:00,58.3,55.4,29.57,SSE,160,0.0,0.0,90,0.10,,---,0.15,VWS V14.01,2013-07-05 21:37:00,
2013-07-05 15:42:00,58.6,56.0,29.57,SSE,158,0.0,0.0,91,0.10,,---,0.15,VWS V14.01,2013-07-05 21:42:00,
2013-07-05 15:47:00,58.6,56.0,29.56,SSE,158,0.0,0.0,91,0.10,,---,0.15,VWS V14.01,2013-07-05 21:47:00,
2013-07-05 15:52:00,58.6,56.0,29.57,SSE,158,0.0,0.0,91,0.10,,---,0.15,VWS V14.01,2013-07-05 21:52:00,
2013-07-05 15:57:00,58.6,56.0,29.56,SSE,158,0.0,0.0,91,0.10,,---,0.15,VWS V14.01,2013-07-05 21:57:00,
2013-07-05 16:00:00,58.6,56.0,29.56,SE,127,0.0,1.0,91,0.10,,---,0.15,VWS V14.01,2013-07-05 22:00:00,
2013-07-05 16:02:00,58.7,56.1,29.56,SE,127,0.0,0.0,91,0.00,,---,0.15,VWS V14.01,2013-07-05 22:02:00,
2013-07-05 16:07:00,58.8,56.5,29.56,SSE,152,0.0,1.0,92,0.00,,---,0.15,VWS V14.01,2013-07-05 22:07:00,
2013-07-05 16:12:00,58.9,56.3,29.57,SSE,153,0.0,1.0,91,0.00,,---,0.15,VWS V14.01,2013-07-05 22:12:00,
2013-07-05 16:17:00,59.0,56.4,29.57,SSE,167,1.0,1.0,91,0.00,,---,0.15,VWS V14.01,2013-07-05 22:17:00,
2013-07-05 16:22:00,59.0,56.1,29.57,SSE,151,1.0,1.0,90,0.00,,---,0.15,VWS V14.01,2013-07-05 22:22:00,
2013-07-05 16:27:00,59.1,56.2,29.57,SSE,148,0.0,1.0,90,0.00,,---,0.15,VWS V14.01,2013-07-05 22:27:00,
2013-07-05 16:30:00,59.2,56.3,29.58,SSE,148,0.0,1.0,90,0.00,,---,0.15,VWS V14.01,2013-07-05 22:30:00,
2013-07-05 16:32:00,59.3,56.4,29.58,ESE,120,0.0,1.0,90,0.00,,---,0.15,VWS V14.01,2013-07-05 22:32:00,
2013-07-05 16:37:00,59.4,56.5,29.58,South,177,1.0,1.0,90,0.00,,---,0.15,VWS V14.01,2013-07-05 22:37:00,
2013-07-05 16:42:00,59.3,56.4,29.58,SSE,160,0.0,2.0,90,0.00,,---,0.15,VWS V14.01,2013-07-05 22:42:00,
2013-07-05 16:47:00,59.2,56.0,29.57,SSE,158,0.0,2.0,89,0.00,,---,0.15,VWS V14.01,2013-07-05 22:47:00,
2013-07-05 16:52:00,59.2,56.0,29.58,NE,44,2.0,2.0,89,0.00,,---,0.15,VWS V14.01,2013-07-05 22:52:00,
2013-07-05 16:57:00,59.4,56.5,29.58,NE,50,0.0,2.0,90,0.00,,---,0.15,VWS V14.01,2013-07-05 22:57:00,
2013-07-05 17:00:00,59.3,56.1,29.58,SSW,207,1.0,2.0,89,0.00,,---,0.15,VWS V14.01,2013-07-05 23:00:00,
2013-07-05 17:02:00,59.2,56.3,29.58,SSW,207,0.0,1.0,90,0.00,,---,0.15,VWS V14.01,2013-07-05 23:02:00,
2013-07-05 17:03:00,59.2,56.3,29.58,SSW,207,0.0,1.0,90,0.00,,---,0.15,VWS V14.01,2013-07-05 23:03:00,
2013-07-05 17:08:00,59.2,56.3,29.57,SSW,207,0.0,1.0,90,0.01,,---,0.16,VWS V14.01,2013-07-05 23:08:00,
2013-07-05 17:13:00,59.1,55.5,29.57,NNE,33,3.0,3.0,88,0.01,,---,0.16,VWS V14.01,2013-07-05 23:13:00,
2013-07-05 17:18:00,58.8,55.6,29.56,SE,137,1.0,3.0,89,0.01,,---,0.16,VWS V14.01,2013-07-05 23:18:00,
2013-07-05 17:23:00,58.8,55.9,29.56,SSE,163,0.0,3.0,90,0.01,,---,0.16,VWS V14.01,2013-07-05 23:23:00,
2013-07-05 17:28:00,58.8,55.6,29.56,South,181,2.0,3.0,89,0.01,,---,0.16,VWS V14.01,2013-07-05 23:28:00,
2013-07-05 17:30:00,58.8,55.3,29.55,SSW,193,2.0,3.0,88,0.01,,---,0.16,VWS V14.01,2013-07-05 23:30:00,
2013-07-05 17:33:00,58.9,55.0,29.55,SSW,208,1.0,2.0,87,0.01,,---,0.16,VWS V14.01,2013-07-05 23:33:00,
2013-07-05 17:38:00,59.2,54.7,29.56,East,101,1.0,2.0,85,0.01,,---,0.16,VWS V14.01,2013-07-05 23:38:00,
2013-07-05 17:43:00,59.6,55.1,29.55,ENE,67,2.0,2.0,85,0.01,,---,0.16,VWS V14.01,2013-07-05 23:43:00,
2013-07-05 17:48:00,59.8,55.3,29.55,ENE,60,1.0,2.0,85,0.01,,---,0.16,VWS V14.01,2013-07-05 23:48:00,
2013-07-05 17:53:00,60.0,55.2,29.55,ENE,60,0.0,2.0,84,0.01,,---,0.16,VWS V14.01,2013-07-05 23:53:00,
2013-07-05 17:59:00,60.2,55.7,29.55,NNW,338,0.0,2.0,85,0.01,,---,0.16,VWS V14.01,2013-07-05 23:59:00,
2013-07-05 18:00:00,60.2,55.7,29.55,NNW,338,0.0,2.0,85,0.01,,---,0.16,VWS V14.01,2013-07-06 00:00:00,
2013-07-05 18:04:00,60.3,54.8,29.55,NNW,337,1.0,1.0,82,0.01,,---,0.16,VWS V14.01,2013-07-06 00:04:00,
2013-07-05 18:09:00,60.6,55.1,29.55,West,271,1.0,2.0,82,0.01,,---,0.16,VWS V14.01,2013-07-06 00:09:00,
2013-07-05 18:14:00,60.8,56.3,29.55,West,267,1.0,2.0,85,0.01,,---,0.16,VWS V14.01,2013-07-06 00:14:00,
2013-07-05 18:19:00,60.8,56.3,29.55,West,270,0.0,2.0,85,0.01,,---,0.16,VWS V14.01,2013-07-06 00:19:00,
2013-07-05 18:24:00,60.7,56.2,29.55,West,269,0.0,2.0,85,0.01,,---,0.16,VWS V14.01,2013-07-06 00:24:00,
2013-07-05 18:30:00,60.7,56.5,29.55,West,271,0.0,2.0,86,0.01,,---,0.16,VWS V14.01,2013-07-06 00:30:00,
2013-07-05 18:35:00,60.5,56.0,29.55,WSW,256,1.0,1.0,85,0.00,,---,0.16,VWS V14.01,2013-07-06 00:35:00,
2013-07-05 18:40:00,60.9,56.7,29.55,NW,316,0.0,2.0,86,0.00,,---,0.16,VWS V14.01,2013-07-06 00:40:00,
2013-07-05 18:45:00,61.4,56.9,29.54,West,259,1.0,2.0,85,0.00,,---,0.16,VWS V14.01,2013-07-06 00:45:00,
2013-07-05 18:50:00,62.0,56.8,29.55,WNW,284,1.0,2.0,83,0.00,,---,0.16,VWS V14.01,2013-07-06 00:50:00,
2013-07-05 18:55:00,62.2,57.0,29.55,SSW,203,0.0,2.0,83,0.00,,---,0.16,VWS V14.01,2013-07-06 00:55:00,
2013-07-05 19:00:00,62.1,57.5,29.55,SSW,203,0.0,2.0,85,0.00,,---,0.16,VWS V14.01,2013-07-06 01:00:00,
2013-07-05 19:05:00,62.0,57.5,29.55,SSW,203,0.0,0.0,85,0.00,,---,0.16,VWS V14.01,2013-07-06 01:05:00,
2013-07-05 19:10:00,61.9,57.0,29.55,SSW,203,0.0,0.0,84,0.00,,---,0.16,VWS V14.01,2013-07-06 01:10:00,
2013-07-05 19:15:00,61.8,57.2,29.55,SSW,203,0.0,1.0,85,0.00,,---,0.16,VWS V14.01,2013-07-06 01:15:00,
2013-07-05 19:20:00,61.8,57.6,29.55,SSW,203,0.0,1.0,86,0.00,,---,0.16,VWS V14.01,2013-07-06 01:20:00,
2013-07-05 19:25:00,61.5,57.3,29.55,SSW,203,0.0,1.0,86,0.00,,---,0.16,VWS V14.01,2013-07-06 01:25:00,
2013-07-05 19:30:00,61.4,57.5,29.56,SSW,203,0.0,1.0,87,0.00,,---,0.16,VWS V14.01,2013-07-06 01:30:00,
2013-07-05 19:35:00,61.3,57.4,29.56,SSW,203,0.0,0.0,87,0.00,,---,0.16,VWS V14.01,2013-07-06 01:35:00,
2013-07-05 19:40:00,60.9,57.3,29.56,South,173,0.0,1.0,88,0.00,,---,0.16,VWS V14.01,2013-07-06 01:40:00,
2013-07-05 19:45:00,60.7,57.4,29.56,South,173,0.0,1.0,89,0.00,,---,0.16,VWS V14.01,2013-07-06 01:45:00,
2013-07-05 19:50:00,60.5,57.2,29.56,South,173,0.0,1.0,89,0.00,,---,0.16,VWS V14.01,2013-07-06 01:50:00,
2013-07-05 19:55:00,60.2,57.0,29.56,South,173,0.0,1.0,89,0.00,,---,0.16,VWS V14.01,2013-07-06 01:55:00,
2013-07-05 20:00:00,59.9,56.7,29.56,South,173,0.0,1.0,89,0.00,,---,0.16,VWS V14.01,2013-07-06 02:00:00,
2013-07-05 20:05:00,59.5,56.3,29.56,South,173,0.0,0.0,89,0.00,,---,0.16,VWS V14.01,2013-07-06 02:05:00,
2013-07-05 20:10:00,59.1,55.9,29.56,South,172,0.0,0.0,89,0.00,,---,0.16,VWS V14.01,2013-07-06 02:10:00,
2013-07-05 20:15:00,58.6,55.4,29.57,South,173,0.0,0.0,89,0.00,,---,0.16,VWS V14.01,2013-07-06 02:15:00,
2013-07-05 20:20:00,58.2,55.0,29.57,South,174,0.0,1.0,89,0.00,,---,0.16,VWS V14.01,2013-07-06 02:20:00,
2013-07-05 20:25:00,57.6,54.7,29.57,South,175,0.0,1.0,90,0.00,,---,0.16,VWS V14.01,2013-07-06 02:25:00,
2013-07-05 20:30:00,57.1,53.9,29.58,SW,222,0.0,1.0,89,0.00,,---,0.16,VWS V14.01,2013-07-06 02:30:00,
2013-07-05 21:00:00,54.9,52.6,29.59,North,0,0.0,0.0,92,0.00,,---,0.16,VWS V14.01,2013-07-06 03:00:00,
2013-07-05 21:30:00,53.7,51.7,29.62,North,0,0.0,0.0,93,0.00,,---,0.16,VWS V14.01,2013-07-06 03:30:00,
2013-07-05 22:00:00,52.5,50.8,29.63,SW,225,0.0,1.0,94,0.00,,---,0.16,VWS V14.01,2013-07-06 04:00:00,
2013-07-05 22:30:00,51.7,50.3,29.66,SW,225,0.0,1.0,95,0.00,,---,0.16,VWS V14.01,2013-07-06 04:30:00,
2013-07-05 23:00:00,51.1,49.7,29.67,NW,315,0.0,2.0,95,0.00,,---,0.16,VWS V14.01,2013-07-06 05:00:00,
2013-07-05 23:30:00,50.9,49.8,29.70,NW,315,0.0,1.0,96,0.00,,---,0.16,VWS V14.01,2013-07-06 05:30:00,